Time;durP1;ratioP1;P1;durP2;ratioP2;P2;SDS_P1;SDS_P2;PMS_P1;PMS_P2;Temp;Humidity;BMP_temperature;BMP_pressure;BME280_temperature;BME280_humidity;BME280_pressure;Samples;Min_cycle;Max_cycle;Signal;HPM_P1;HPM_P2
2021/10/27 00:01:08;;;;;;;;;;;18.50;61.30;;;;;;4962681;28;19914;-56
2021/10/27 00:03:35;;;;;;;;;;;18.50;61.30;;;;;;4961542;28;21250;-58
2021/10/27 00:06:01;;;;;;;;;;;18.50;61.30;;;;;;4962393;28;19929;-59
2021/10/27 00:08:26;;;;;;;;;;;18.50;61.20;;;;;;4962433;28;19914;-58
2021/10/27 00:10:52;;;;;;;;;;;18.50;61.20;;;;;;4960368;28;19914;-57
2021/10/27 00:13:17;;;;;;;;;;;18.50;61.20;;;;;;4977502;28;19969;-58
2021/10/27 00:15:43;;;;;;;;;;;18.50;61.10;;;;;;4976763;28;19922;-57
2021/10/27 00:18:08;;;;;;;;;;;18.50;61.10;;;;;;4962539;28;19932;-59
2021/10/27 00:20:34;;;;;;;;;;;18.50;61.10;;;;;;4962614;28;19989;-59
2021/10/27 00:22:59;;;;;;;;;;;18.50;61.20;;;;;;4963038;28;19922;-58
2021/10/27 00:25:25;;;;;;;;;;;18.50;61.10;;;;;;4961717;28;19914;-59
2021/10/27 00:27:50;;;;;;;;;;;18.50;61.10;;;;;;4961632;28;19914;-57
2021/10/27 00:30:15;;;;;;;;;;;18.50;61.10;;;;;;4962059;28;20429;-60
2021/10/27 00:32:41;;;;;;;;;;;18.50;61.10;;;;;;4962296;28;19914;-59
2021/10/27 00:35:08;;;;;;;;;;;18.50;61.10;;;;;;4961869;28;19977;-59
2021/10/27 00:37:33;;;;;;;;;;;18.50;61.10;;;;;;4962263;28;19962;-58
2021/10/27 00:39:59;;;;;;;;;;;18.50;61.10;;;;;;4959566;28;19960;-59
2021/10/27 00:42:25;;;;;;;;;;;18.50;61.10;;;;;;4961797;28;19924;-59
2021/10/27 00:44:50;;;;;;;;;;;18.50;61.10;;;;;;4962223;28;19914;-58
2021/10/27 00:47:16;;;;;;;;;;;18.50;61.10;;;;;;4961062;28;19965;-58
2021/10/27 00:49:42;;;;;;;;;;;18.50;61.10;;;;;;4961826;28;19921;-59
2021/10/27 00:52:10;;;;;;;;;;;18.50;61.10;;;;;;4961611;28;20379;-58
2021/10/27 00:54:35;;;;;;;;;;;18.50;61.10;;;;;;4976023;28;19950;-59
2021/10/27 00:57:02;;;;;;;;;;;18.50;61.10;;;;;;4960448;28;20592;-57
2021/10/27 00:59:27;;;;;;;;;;;18.50;61.00;;;;;;4952295;28;19915;-58
2021/10/27 01:01:53;;;;;;;;;;;18.50;61.10;;;;;;4943026;28;20435;-60
2021/10/27 01:04:18;;;;;;;;;;;18.50;61.00;;;;;;4958864;28;19914;-58
2021/10/27 01:06:44;;;;;;;;;;;18.50;60.90;;;;;;4960386;28;19922;-59
2021/10/27 01:09:09;;;;;;;;;;;18.50;61.00;;;;;;4961408;28;20625;-58
2021/10/27 01:11:35;;;;;;;;;;;18.40;60.90;;;;;;4960588;28;20087;-58
2021/10/27 01:14:03;;;;;;;;;;;18.50;61.10;;;;;;4976019;28;19914;-58
2021/10/27 01:16:29;;;;;;;;;;;18.40;61.10;;;;;;4960007;28;19925;-58
2021/10/27 01:18:55;;;;;;;;;;;18.40;61.10;;;;;;4961361;28;19922;-57
2021/10/27 01:21:21;;;;;;;;;;;18.40;61.20;;;;;;4959725;28;19914;-56
2021/10/27 01:23:47;;;;;;;;;;;18.40;61.20;;;;;;4975228;28;19950;-57
2021/10/27 01:26:12;;;;;;;;;;;18.40;61.20;;;;;;4931897;28;20038;-58
2021/10/27 01:28:39;;;;;;;;;;;18.40;61.20;;;;;;4926413;28;19915;-57
2021/10/27 01:31:04;;;;;;;;;;;18.40;61.20;;;;;;4921628;28;19915;-59
2021/10/27 01:33:30;;;;;;;;;;;18.40;61.30;;;;;;4944982;28;20056;-58
2021/10/27 01:35:55;;;;;;;;;;;18.40;61.30;;;;;;4960715;28;19922;-57
2021/10/27 01:38:21;;;;;;;;;;;18.40;61.30;;;;;;4960558;28;20287;-58
2021/10/27 01:40:46;;;;;;;;;;;18.40;61.20;;;;;;4961102;28;19918;-56
2021/10/27 01:43:12;;;;;;;;;;;18.40;61.20;;;;;;4961389;28;19921;-58
2021/10/27 01:45:37;;;;;;;;;;;18.40;61.20;;;;;;4959741;28;19914;-59
2021/10/27 01:48:03;;;;;;;;;;;18.40;61.20;;;;;;4961430;28;19925;-58
2021/10/27 01:50:28;;;;;;;;;;;18.40;61.20;;;;;;4960879;28;20440;-57
2021/10/27 01:52:54;;;;;;;;;;;18.40;61.30;;;;;;4959913;28;19922;-59
2021/10/27 01:55:19;;;;;;;;;;;18.40;61.30;;;;;;4959765;28;19929;-59
2021/10/27 01:57:44;;;;;;;;;;;18.30;61.40;;;;;;4959945;28;19968;-58
2021/10/27 02:00:10;;;;;;;;;;;18.30;61.40;;;;;;4959213;28;19914;-59
2021/10/27 02:02:36;;;;;;;;;;;18.30;61.40;;;;;;4960251;28;19914;-57
2021/10/27 02:05:01;;;;;;;;;;;18.30;61.40;;;;;;4961031;28;19921;-56
2021/10/27 02:07:27;;;;;;;;;;;18.30;61.40;;;;;;4959345;28;19922;-56
2021/10/27 02:09:52;;;;;;;;;;;18.30;61.40;;;;;;4960955;28;20418;-56
2021/10/27 02:12:17;;;;;;;;;;;18.30;61.40;;;;;;4975908;28;19914;-60
2021/10/27 02:14:43;;;;;;;;;;;18.30;61.40;;;;;;4958330;28;19926;-59
2021/10/27 02:17:08;;;;;;;;;;;18.30;61.40;;;;;;4959730;28;19918;-58
2021/10/27 02:19:34;;;;;;;;;;;18.30;61.40;;;;;;4960606;28;19957;-58
2021/10/27 02:21:59;;;;;;;;;;;18.30;61.40;;;;;;4960180;28;19941;-56
2021/10/27 02:24:25;;;;;;;;;;;18.30;61.40;;;;;;4960392;28;19972;-57
2021/10/27 02:26:51;;;;;;;;;;;18.30;61.40;;;;;;4959804;28;20669;-58
2021/10/27 02:29:16;;;;;;;;;;;18.30;61.20;;;;;;4962848;28;19926;-60
2021/10/27 02:31:42;;;;;;;;;;;18.40;61.30;;;;;;4955959;28;19919;-59
2021/10/27 02:34:07;;;;;;;;;;;18.30;61.90;;;;;;4944513;28;19918;-58
2021/10/27 02:36:32;;;;;;;;;;;18.40;61.20;;;;;;4944272;28;19926;-58
2021/10/27 02:38:59;;;;;;;;;;;18.40;61.10;;;;;;4944522;28;20355;-58
2021/10/27 02:41:24;;;;;;;;;;;18.40;61.10;;;;;;4943784;28;19915;-56
2021/10/27 02:43:50;;;;;;;;;;;18.40;61.10;;;;;;4944383;28;20000;-58
2021/10/27 02:46:15;;;;;;;;;;;18.30;61.00;;;;;;4943439;28;19973;-58
2021/10/27 02:48:41;;;;;;;;;;;18.40;61.00;;;;;;4944314;28;19930;-56
2021/10/27 02:51:06;;;;;;;;;;;18.40;61.00;;;;;;4944800;28;19914;-58
2021/10/27 02:53:32;;;;;;;;;;;18.40;60.90;;;;;;4944134;28;20407;-58
2021/10/27 02:55:57;;;;;;;;;;;18.40;60.80;;;;;;4943523;28;19925;-58
2021/10/27 02:58:22;;;;;;;;;;;18.40;60.90;;;;;;4944056;28;19966;-60
2021/10/27 03:00:48;;;;;;;;;;;18.40;60.90;;;;;;4944328;28;19921;-56
2021/10/27 03:03:13;;;;;;;;;;;18.40;60.80;;;;;;4944858;28;19923;-57
2021/10/27 03:05:39;;;;;;;;;;;18.40;60.90;;;;;;4982129;23;19933;-68
2021/10/27 03:08:04;;;;;;;;;;;18.40;60.90;;;;;;5005363;28;20357;-67
2021/10/27 03:10:30;;;;;;;;;;;18.40;60.90;;;;;;5005929;28;19917;-66
2021/10/27 03:12:55;;;;;;;;;;;18.40;60.90;;;;;;5006926;28;19924;-67
2021/10/27 03:15:21;;;;;;;;;;;18.40;60.90;;;;;;5004274;28;20428;-66
2021/10/27 03:17:46;;;;;;;;;;;18.40;60.80;;;;;;4987406;28;19914;-66
2021/10/27 03:20:12;;;;;;;;;;;18.40;60.80;;;;;;4987547;28;19921;-67
2021/10/27 03:22:38;;;;;;;;;;;18.40;60.90;;;;;;4987836;28;20392;-68
2021/10/27 03:25:04;;;;;;;;;;;18.40;60.90;;;;;;4987272;28;19980;-67
2021/10/27 03:27:29;;;;;;;;;;;18.40;60.80;;;;;;4987383;28;19953;-67
2021/10/27 03:29:55;;;;;;;;;;;18.40;60.90;;;;;;4987568;28;19914;-67
2021/10/27 03:32:20;;;;;;;;;;;18.40;60.90;;;;;;4987193;28;20443;-67
2021/10/27 03:34:48;;;;;;;;;;;18.40;60.90;;;;;;4986750;28;19918;-67
2021/10/27 03:37:14;;;;;;;;;;;18.40;60.90;;;;;;4986901;28;20981;-67
2021/10/27 03:39:40;;;;;;;;;;;18.40;60.90;;;;;;5009755;28;19914;-66
2021/10/27 03:42:05;;;;;;;;;;;18.40;60.90;;;;;;4987567;28;19914;-66
2021/10/27 03:44:30;;;;;;;;;;;18.40;60.80;;;;;;4987036;28;19914;-67
2021/10/27 03:46:56;;;;;;;;;;;18.40;60.80;;;;;;4986695;28;19920;-67
2021/10/27 03:49:21;;;;;;;;;;;18.40;60.70;;;;;;4987213;28;19914;-66
2021/10/27 03:51:48;;;;;;;;;;;18.40;60.70;;;;;;4986901;28;19937;-67
2021/10/27 03:54:13;;;;;;;;;;;18.40;60.90;;;;;;4987317;28;19921;-67
2021/10/27 03:56:39;;;;;;;;;;;18.40;60.90;;;;;;4988129;28;19922;-66
2021/10/27 03:59:04;;;;;;;;;;;18.40;60.80;;;;;;4987327;28;19914;-66
2021/10/27 04:01:30;;;;;;;;;;;18.30;60.80;;;;;;4988007;28;19945;-67
2021/10/27 04:03:55;;;;;;;;;;;18.40;60.80;;;;;;4988825;28;19914;-69
2021/10/27 04:06:21;;;;;;;;;;;18.40;60.80;;;;;;5003265;23;19936;-64
2021/10/27 04:08:46;;;;;;;;;;;18.30;60.90;;;;;;4984750;28;19922;-63
2021/10/27 04:11:12;;;;;;;;;;;18.40;60.90;;;;;;5010664;28;19998;-64
2021/10/27 04:13:37;;;;;;;;;;;18.30;60.90;;;;;;4986691;28;20210;-65
2021/10/27 04:16:03;;;;;;;;;;;18.30;61.00;;;;;;4986560;28;20407;-65
2021/10/27 04:18:28;;;;;;;;;;;18.30;61.00;;;;;;5003071;28;19920;-66
2021/10/27 04:20:53;;;;;;;;;;;18.30;61.00;;;;;;5006418;28;19984;-64
2021/10/27 04:23:19;;;;;;;;;;;18.30;61.10;;;;;;5005141;28;19914;-63
2021/10/27 04:25:44;;;;;;;;;;;18.30;61.00;;;;;;4996563;28;19933;-65
2021/10/27 04:28:10;;;;;;;;;;;18.30;61.40;;;;;;5004893;28;20469;-65
2021/10/27 04:30:35;;;;;;;;;;;18.20;61.10;;;;;;5005078;28;19914;-65
2021/10/27 04:33:01;;;;;;;;;;;18.20;61.20;;;;;;5005738;28;19920;-65
2021/10/27 04:35:26;;;;;;;;;;;18.20;61.20;;;;;;5005455;28;19965;-64
2021/10/27 04:37:52;;;;;;;;;;;18.30;61.10;;;;;;5005788;28;19914;-64
2021/10/27 04:40:18;;;;;;;;;;;18.30;61.00;;;;;;5005794;28;19925;-65
2021/10/27 04:42:43;;;;;;;;;;;18.30;60.90;;;;;;5005816;28;19979;-64
2021/10/27 04:45:09;;;;;;;;;;;18.30;60.80;;;;;;5006566;28;19914;-64
2021/10/27 04:47:34;;;;;;;;;;;18.30;60.70;;;;;;5005903;28;19914;-64
2021/10/27 04:50:00;;;;;;;;;;;18.30;60.70;;;;;;5007376;28;19914;-65
2021/10/27 04:52:25;;;;;;;;;;;18.30;60.70;;;;;;5007175;28;19914;-64
2021/10/27 04:54:51;;;;;;;;;;;18.20;60.70;;;;;;5007865;28;20402;-65
2021/10/27 04:57:16;;;;;;;;;;;18.30;60.70;;;;;;5008055;28;19914;-64
2021/10/27 04:59:42;;;;;;;;;;;18.30;60.60;;;;;;5007110;28;19956;-64
2021/10/27 05:02:08;;;;;;;;;;;18.30;60.60;;;;;;5006034;28;19913;-65
2021/10/27 05:04:34;;;;;;;;;;;18.30;60.60;;;;;;5005237;28;20234;-66
2021/10/27 05:06:59;;;;;;;;;;;18.30;60.50;;;;;;5005211;28;19928;-64
2021/10/27 05:09:25;;;;;;;;;;;18.20;60.50;;;;;;5005657;28;19918;-64
2021/10/27 05:11:51;;;;;;;;;;;18.30;60.50;;;;;;5005742;28;19963;-64
2021/10/27 05:14:16;;;;;;;;;;;18.20;60.50;;;;;;5005392;28;20383;-64
2021/10/27 05:16:42;;;;;;;;;;;18.30;60.60;;;;;;5005166;28;19924;-66
2021/10/27 05:19:07;;;;;;;;;;;18.30;60.50;;;;;;5004904;28;19952;-66
2021/10/27 05:21:32;;;;;;;;;;;18.30;61.30;;;;;;5002832;28;19914;-64
2021/10/27 05:23:58;;;;;;;;;;;18.20;61.80;;;;;;5004333;28;19913;-65
2021/10/27 05:26:23;;;;;;;;;;;18.20;62.00;;;;;;5002684;28;19944;-66
2021/10/27 05:28:49;;;;;;;;;;;18.30;62.10;;;;;;5004481;28;20521;-67
2021/10/27 05:31:14;;;;;;;;;;;18.30;62.00;;;;;;5004737;28;19920;-67
2021/10/27 05:33:40;;;;;;;;;;;18.30;61.80;;;;;;5004649;28;19920;-66
2021/10/27 05:36:05;;;;;;;;;;;18.30;61.60;;;;;;5003769;28;20037;-66
2021/10/27 05:38:31;;;;;;;;;;;18.40;61.30;;;;;;5004142;28;20296;-66
2021/10/27 05:40:57;;;;;;;;;;;18.30;60.70;;;;;;5004589;28;19918;-66
2021/10/27 05:43:25;;;;;;;;;;;18.30;60.30;;;;;;5004292;28;20036;-66
2021/10/27 05:45:53;;;;;;;;;;;18.30;60.00;;;;;;5004283;28;20396;-66
2021/10/27 05:48:19;;;;;;;;;;;18.30;59.70;;;;;;5004108;28;20376;-66
2021/10/27 05:50:57;;;;;;;;;;;18.30;59.50;;;;;;5004240;28;19914;-66
2021/10/27 05:56:06;;;;;;;;;;;18.30;59.20;;;;;;5004136;28;19932;-66
2021/10/27 05:58:32;;;;;;;;;;;18.30;59.00;;;;;;5004141;28;20226;-66
2021/10/27 06:00:58;;;;;;;;;;;18.30;59.00;;;;;;5003983;28;19918;-66
2021/10/27 06:03:23;;;;;;;;;;;18.30;59.00;;;;;;4994082;28;20388;-66
2021/10/27 06:05:49;;;;;;;;;;;18.30;58.80;;;;;;5000730;28;19979;-63
2021/10/27 06:08:15;;;;;;;;;;;18.20;58.70;;;;;;5004150;28;19913;-66
2021/10/27 06:10:42;;;;;;;;;;;18.30;58.80;;;;;;5004497;28;19914;-66
2021/10/27 06:13:09;;;;;;;;;;;18.20;58.70;;;;;;5003980;28;19921;-66
2021/10/27 06:15:35;;;;;;;;;;;18.20;58.80;;;;;;5006648;28;19924;-67
2021/10/27 06:18:01;;;;;;;;;;;18.30;58.90;;;;;;5006842;28;19914;-66
2021/10/27 06:20:27;;;;;;;;;;;18.20;59.00;;;;;;5006257;28;20346;-67
2021/10/27 06:22:52;;;;;;;;;;;18.30;59.10;;;;;;5005816;28;19918;-66
2021/10/27 06:25:18;;;;;;;;;;;18.20;59.10;;;;;;5004810;28;19980;-66
2021/10/27 06:27:47;;;;;;;;;;;18.20;59.20;;;;;;5005901;28;20303;-67
2021/10/27 06:32:49;;;;;;;;;;;18.20;59.30;;;;;;5004526;28;20292;-67
2021/10/27 06:35:22;;;;;;;;;;;18.20;59.40;;;;;;4993677;28;19925;-67
2021/10/27 06:48:25;;;;;;;;;;;18.20;59.80;;;;;;5004419;28;20369;-65
2021/10/27 06:50:51;;;;;;;;;;;18.20;59.90;;;;;;5004041;28;20000;-65
2021/10/27 06:53:16;;;;;;;;;;;18.20;59.90;;;;;;5004786;28;20022;-64
2021/10/27 06:55:42;;;;;;;;;;;18.20;60.00;;;;;;5004067;28;21530;-64
2021/10/27 06:58:09;;;;;;;;;;;18.20;59.90;;;;;;5002629;28;19921;-65
2021/10/27 07:00:53;;;;;;;;;;;18.20;59.90;;;;;;5003898;28;19917;-65
2021/10/27 07:06:25;;;;;;;;;;;18.20;59.90;;;;;;4984019;28;19980;-66
2021/10/27 07:17:02;;;;;;;;;;;18.10;59.80;;;;;;4978278;28;19964;-65
2021/10/27 07:19:28;;;;;;;;;;;18.10;59.80;;;;;;4988330;28;20328;-66
2021/10/27 07:21:54;;;;;;;;;;;18.10;59.70;;;;;;4983507;28;19921;-65
2021/10/27 07:24:20;;;;;;;;;;;18.10;60.20;;;;;;4987710;28;19921;-66
2021/10/27 07:26:46;;;;;;;;;;;18.10;60.70;;;;;;4988346;28;19918;-65
2021/10/27 07:29:15;;;;;;;;;;;18.10;61.00;;;;;;4987242;28;19914;-66
2021/10/27 07:31:41;;;;;;;;;;;18.10;61.50;;;;;;4987087;28;20177;-65
2021/10/27 07:34:10;;;;;;;;;;;18.10;62.10;;;;;;4979167;28;19928;-66
2021/10/27 07:42:04;;;;;;;;;;;18.10;63.20;;;;;;4976694;28;19925;-67
2021/10/27 07:44:29;;;;;;;;;;;18.10;63.40;;;;;;4977689;28;19923;-66
2021/10/27 07:46:55;;;;;;;;;;;18.10;63.40;;;;;;4989073;28;19921;-65
2021/10/27 07:49:21;;;;;;;;;;;18.10;63.50;;;;;;4979754;28;20343;-64
2021/10/27 07:51:46;;;;;;;;;;;18.10;63.60;;;;;;4987351;28;19914;-65
2021/10/27 07:54:12;;;;;;;;;;;18.10;63.70;;;;;;4983128;28;20568;-64
2021/10/27 07:56:38;;;;;;;;;;;18.10;63.80;;;;;;4985827;28;19921;-64
2021/10/27 07:59:03;;;;;;;;;;;18.00;63.80;;;;;;4976311;28;19914;-64
2021/10/27 08:01:29;;;;;;;;;;;18.00;63.70;;;;;;4985958;28;19964;-65
2021/10/27 08:03:58;;;;;;;;;;;18.00;63.90;;;;;;4986977;28;20301;-64
2021/10/27 08:06:23;;;;;;;;;;;18.00;64.00;;;;;;5001953;28;19922;-64
2021/10/27 08:08:49;;;;;;;;;;;18.00;63.90;;;;;;4992005;28;19914;-65
2021/10/27 08:11:15;;;;;;;;;;;18.00;63.80;;;;;;4997842;28;20438;-65
2021/10/27 08:13:41;;;;;;;;;;;18.10;63.60;;;;;;4994404;28;19922;-65
2021/10/27 08:16:06;;;;;;;;;;;18.00;63.50;;;;;;4993815;28;20396;-65
2021/10/27 08:18:32;;;;;;;;;;;18.10;63.50;;;;;;4999682;28;20292;-65
2021/10/27 08:20:57;;;;;;;;;;;18.10;63.30;;;;;;4991265;28;19918;-65
2021/10/27 08:23:27;;;;;;;;;;;18.10;63.30;;;;;;5003461;28;19985;-65
2021/10/27 08:25:56;;;;;;;;;;;18.10;63.20;;;;;;4982220;28;19918;-65
2021/10/27 08:28:49;;;;;;;;;;;18.10;63.10;;;;;;4987216;28;19914;-65
2021/10/27 08:33:46;;;;;;;;;;;18.10;62.90;;;;;;4987458;28;19921;-65
2021/10/27 08:36:11;;;;;;;;;;;18.20;62.80;;;;;;4971750;28;20377;-65
2021/10/27 08:38:37;;;;;;;;;;;18.20;62.70;;;;;;4984972;28;19921;-64
2021/10/27 08:41:02;;;;;;;;;;;18.20;62.70;;;;;;4973406;28;20274;-66
2021/10/27 08:43:28;;;;;;;;;;;18.20;62.60;;;;;;4982432;28;19918;-65
2021/10/27 08:45:54;;;;;;;;;;;18.20;62.50;;;;;;4986596;28;20336;-65
2021/10/27 08:48:19;;;;;;;;;;;18.20;62.40;;;;;;4985663;28;19921;-65
2021/10/27 08:50:45;;;;;;;;;;;18.20;62.50;;;;;;4979283;28;19917;-65
2021/10/27 08:53:14;;;;;;;;;;;18.20;62.50;;;;;;4985177;28;19914;-65
2021/10/27 08:55:41;;;;;;;;;;;18.20;62.40;;;;;;4986333;28;19925;-65
2021/10/27 08:58:06;;;;;;;;;;;18.20;62.40;;;;;;4986737;28;19914;-65
2021/10/27 09:00:38;;;;;;;;;;;18.20;62.40;;;;;;4979996;28;19925;-65
2021/10/27 09:03:20;;;;;;;;;;;18.20;62.50;;;;;;4980980;28;19914;-65
2021/10/27 09:06:22;;;;;;;;;;;18.10;62.40;;;;;;4979600;28;19926;-61
2021/10/27 09:17:15;;;;;;;;;;;18.10;62.30;;;;;;4985956;28;20296;-63
2021/10/27 09:33:52;;;;;;;;;;;18.10;62.40;;;;;;4976692;28;19921;-62
2021/10/27 09:36:25;;;;;;;;;;;18.20;62.40;;;;;;4965901;28;20273;-64
2021/10/27 09:55:56;;;;;;;;;;;18.20;61.80;;;;;;4975441;28;19924;-62
2021/10/27 10:06:31;;;;;;;;;;;18.20;61.90;;;;;;5007768;23;19992;-69
2021/10/27 10:08:57;;;;;;;;;;;18.20;61.90;;;;;;4976899;28;19973;-67
2021/10/27 10:11:25;;;;;;;;;;;18.20;62.20;;;;;;4993034;28;19933;-68
2021/10/27 10:13:51;;;;;;;;;;;18.20;62.70;;;;;;5002290;28;19921;-69
2021/10/27 10:16:16;;;;;;;;;;;18.20;62.90;;;;;;4988122;28;19936;-67
2021/10/27 10:18:42;;;;;;;;;;;18.20;63.00;;;;;;4997611;28;19971;-67
2021/10/27 10:21:08;;;;;;;;;;;18.20;63.10;;;;;;4986758;28;20201;-67
2021/10/27 10:23:34;;;;;;;;;;;18.20;63.50;;;;;;4997211;28;20403;-67
2021/10/27 10:26:06;;;;;;;;;;;18.20;63.20;;;;;;4993467;28;19914;-67
2021/10/27 10:28:41;;;;;;;;;;;18.20;63.40;;;;;;4996763;28;19913;-68
2021/10/27 10:31:08;;;;;;;;;;;18.20;63.30;;;;;;4994531;28;19918;-68
2021/10/27 10:33:39;;;;;;;;;;;18.20;63.30;;;;;;4993700;28;19918;-68
2021/10/27 10:36:08;;;;;;;;;;;18.20;63.00;;;;;;4996434;28;20338;-67
2021/10/27 10:44:35;;;;;;;;;;;18.20;62.50;;;;;;4982296;28;19929;-67
2021/10/27 10:56:06;;;;;;;;;;;18.20;62.20;;;;;;5007564;28;20137;-67
2021/10/27 11:01:30;;;;;;;;;;;18.20;62.50;;;;;;5002643;28;19957;-66
2021/10/27 11:24:25;;;;;;;;;;;18.10;62.70;;;;;;5002226;28;19932;-67
2021/10/27 11:27:04;;;;;;;;;;;18.10;62.60;;;;;;5007517;28;19914;-67
2021/10/27 11:40:14;;;;;;;;;;;18.20;62.50;;;;;;5006662;28;19913;-66
2021/10/27 11:42:44;;;;;;;;;;;18.20;62.50;;;;;;5005622;28;20008;-67
2021/10/27 11:45:12;;;;;;;;;;;18.20;62.60;;;;;;5005031;28;20429;-66
2021/10/27 11:47:38;;;;;;;;;;;18.10;62.50;;;;;;5006539;28;19984;-67
2021/10/27 11:50:04;;;;;;;;;;;18.20;62.50;;;;;;5004237;28;19914;-68
2021/10/27 11:52:31;;;;;;;;;;;18.20;62.60;;;;;;5005567;28;20058;-67
2021/10/27 11:54:57;;;;;;;;;;;18.20;62.50;;;;;;5007739;28;20287;-67
2021/10/27 11:57:22;;;;;;;;;;;18.20;62.60;;;;;;5007544;28;19914;-66
2021/10/27 11:59:50;;;;;;;;;;;18.10;62.50;;;;;;5004517;28;19922;-67
2021/10/27 12:02:16;;;;;;;;;;;18.10;62.50;;;;;;5006468;28;20016;-67
2021/10/27 12:04:42;;;;;;;;;;;18.10;62.60;;;;;;5007160;28;20386;-66
2021/10/27 12:10:01;;;;;;;;;;;18.10;62.50;;;;;;5006737;28;19924;-68
2021/10/27 12:12:34;;;;;;;;;;;18.10;62.60;;;;;;5001742;28;19918;-67
2021/10/27 12:15:29;;;;;;;;;;;18.10;62.60;;;;;;5002458;28;19921;-67
2021/10/27 12:18:00;;;;;;;;;;;18.10;62.60;;;;;;4989947;28;19964;-69
2021/10/27 12:20:33;;;;;;;;;;;18.10;63.20;;;;;;4994749;28;19953;-67
2021/10/27 12:22:59;;;;;;;;;;;18.10;62.70;;;;;;5003581;28;19918;-68
2021/10/27 12:25:25;;;;;;;;;;;18.10;63.30;;;;;;5006159;28;19917;-66
2021/10/27 12:27:50;;;;;;;;;;;18.10;63.50;;;;;;5004420;28;20358;-67
2021/10/27 12:30:16;;;;;;;;;;;18.10;63.50;;;;;;5006277;28;19913;-67
2021/10/27 12:32:48;;;;;;;;;;;18.10;63.40;;;;;;5006396;28;19918;-67
2021/10/27 12:35:15;;;;;;;;;;;18.10;63.20;;;;;;5006155;28;20368;-67
2021/10/27 12:40:14;;;;;;;;;;;18.10;63.20;;;;;;5006325;28;20503;-68
2021/10/27 12:42:40;;;;;;;;;;;18.10;63.20;;;;;;4997752;28;20000;-66
2021/10/27 12:45:06;;;;;;;;;;;18.10;63.20;;;;;;4994254;28;19992;-67
2021/10/27 12:47:33;;;;;;;;;;;18.10;63.40;;;;;;4994749;28;19914;-67
2021/10/27 12:50:05;;;;;;;;;;;18.10;63.40;;;;;;5029411;28;19914;-67
2021/10/27 12:52:32;;;;;;;;;;;18.10;63.60;;;;;;4994717;28;20004;-67
2021/10/27 12:55:07;;;;;;;;;;;18.10;64.10;;;;;;5003137;28;19917;-67
2021/10/27 12:57:51;;;;;;;;;;;18.10;64.20;;;;;;4996518;28;21293;-67
2021/10/27 13:00:25;;;;;;;;;;;18.10;63.90;;;;;;5000284;28;20431;-68
2021/10/27 13:03:18;;;;;;;;;;;18.10;63.80;;;;;;5033272;28;19913;-67
2021/10/27 13:05:48;;;;;;;;;;;18.10;63.50;;;;;;4979126;28;19914;-67
2021/10/27 13:11:08;;;;;;;;;;;18.10;63.40;;;;;;4969824;28;20184;-67
2021/10/27 13:13:53;;;;;;;;;;;18.10;63.40;;;;;;5004640;28;19913;-67
2021/10/27 13:21:34;;;;;;;;;;;18.10;63.30;;;;;;5008490;28;19914;-68
2021/10/27 13:29:30;;;;;;;;;;;18.00;63.40;;;;;;5005252;28;19917;-67
2021/10/27 13:29:52;;;;;;;;;;;18.00;63.40;;;;;;5000776;28;19921;-67
2021/10/27 13:32:20;;;;;;;;;;;18.00;63.00;;;;;;5004878;28;19917;-67
2021/10/27 13:34:47;;;;;;;;;;;18.10;63.20;;;;;;5000094;28;20344;-68
2021/10/27 13:37:12;;;;;;;;;;;18.10;63.10;;;;;;5006072;28;19917;-68
2021/10/27 13:39:38;;;;;;;;;;;18.10;63.10;;;;;;5003356;28;19914;-67
2021/10/27 13:42:11;;;;;;;;;;;18.10;62.90;;;;;;5004927;28;20190;-67
2021/10/27 13:44:54;;;;;;;;;;;18.10;62.90;;;;;;5003442;28;20563;-68
2021/10/27 13:47:30;;;;;;;;;;;18.10;62.90;;;;;;4977566;28;19922;-68
2021/10/27 13:57:43;;;;;;;;;;;18.10;62.90;;;;;;4977553;28;20464;-68
2021/10/27 14:07:12;;;;;;;;;;;18.20;62.50;;;;;;5003904;28;19928;-69
2021/10/27 14:09:33;;;;;;;;;;;18.20;62.50;;;;;;5003779;28;20277;-68
2021/10/27 14:17:32;;;;;;;;;;;18.20;63.10;;;;;;4977002;28;19918;-68
2021/10/27 14:20:27;;;;;;;;;;;18.30;63.40;;;;;;5022085;28;20407;-68
2021/10/27 14:39:01;;;;;;;;;;;18.30;63.60;;;;;;5006083;28;19936;-67
2021/10/27 14:47:35;;;;;;;;;;;18.30;63.20;;;;;;4982310;28;20351;-67
2021/10/27 15:20:14;;;;;;;;;;;18.20;63.30;;;;;;4999370;28;19996;-68
2021/10/27 15:28:10;;;;;;;;;;;18.30;62.90;;;;;;4999380;28;19924;-66
2021/10/27 15:44:07;;;;;;;;;;;18.20;63.00;;;;;;5010880;28;19914;-62
2021/10/27 15:51:56;;;;;;;;;;;18.20;62.80;;;;;;4988177;28;19968;-66
2021/10/27 15:54:21;;;;;;;;;;;18.20;62.70;;;;;;4988171;28;19922;-63
2021/10/27 15:56:47;;;;;;;;;;;18.20;62.50;;;;;;5018747;28;19940;-67
2021/10/27 15:59:12;;;;;;;;;;;18.20;62.60;;;;;;4987795;28;19920;-63
2021/10/27 16:01:38;;;;;;;;;;;18.20;62.70;;;;;;4987625;28;19921;-66
2021/10/27 16:04:04;;;;;;;;;;;18.20;63.00;;;;;;4987274;28;19914;-66
2021/10/27 16:06:32;;;;;;;;;;;18.20;63.10;;;;;;4987509;28;19922;-66
2021/10/27 16:09:00;;;;;;;;;;;18.20;63.50;;;;;;4987316;28;19921;-66
2021/10/27 16:11:25;;;;;;;;;;;18.20;63.50;;;;;;5027843;22;19969;-54
2021/10/27 16:13:51;;;;;;;;;;;18.20;63.60;;;;;;5031336;28;19913;-59
2021/10/27 16:16:17;;;;;;;;;;;18.20;63.80;;;;;;5046272;28;20369;-56
2021/10/27 16:18:42;;;;;;;;;;;18.20;63.90;;;;;;5042607;28;19913;-58
2021/10/27 16:21:08;;;;;;;;;;;18.20;63.90;;;;;;5047591;28;19924;-55
2021/10/27 16:23:33;;;;;;;;;;;18.20;63.90;;;;;;5040179;28;20058;-57
2021/10/27 16:26:00;;;;;;;;;;;18.20;64.10;;;;;;5039949;28;19937;-58
2021/10/27 16:28:25;;;;;;;;;;;18.20;64.10;;;;;;5030972;28;19924;-59
2021/10/27 16:30:52;;;;;;;;;;;18.30;64.30;;;;;;5026686;28;19913;-57
2021/10/27 16:33:21;;;;;;;;;;;18.30;64.50;;;;;;5021784;28;19913;-58
2021/10/27 16:35:46;;;;;;;;;;;18.30;64.60;;;;;;5025257;28;20023;-58
2021/10/27 16:38:12;;;;;;;;;;;18.30;64.80;;;;;;5041409;28;19966;-57
2021/10/27 16:40:37;;;;;;;;;;;18.30;64.90;;;;;;5034260;28;19913;-58
2021/10/27 16:43:03;;;;;;;;;;;18.30;65.10;;;;;;5036484;28;20393;-58
2021/10/27 16:45:29;;;;;;;;;;;18.30;65.00;;;;;;5034969;28;20007;-59
2021/10/27 16:47:55;;;;;;;;;;;18.30;64.80;;;;;;5041059;28;19913;-58
2021/10/27 16:50:20;;;;;;;;;;;18.30;64.70;;;;;;5044579;28;20285;-59
2021/10/27 16:52:46;;;;;;;;;;;18.30;64.80;;;;;;5039307;28;20226;-55
2021/10/27 16:55:18;;;;;;;;;;;18.30;64.80;;;;;;5027765;28;19913;-59
2021/10/27 16:57:45;;;;;;;;;;;18.30;64.80;;;;;;5032682;28;19913;-60
2021/10/27 17:00:11;;;;;;;;;;;18.30;64.70;;;;;;5033996;28;19917;-57
2021/10/27 17:02:36;;;;;;;;;;;18.30;64.60;;;;;;5033582;28;19920;-59
2021/10/27 17:05:02;;;;;;;;;;;18.30;64.50;;;;;;5038840;28;19913;-59
2021/10/27 17:07:27;;;;;;;;;;;18.30;64.40;;;;;;5041522;28;20378;-60
2021/10/27 17:09:52;;;;;;;;;;;18.30;64.40;;;;;;5031873;28;20012;-59
2021/10/27 17:12:18;;;;;;;;;;;18.30;64.30;;;;;;5026270;28;19921;-59
2021/10/27 17:14:44;;;;;;;;;;;18.30;64.30;;;;;;5045719;28;19913;-59
2021/10/27 17:17:09;;;;;;;;;;;18.30;64.30;;;;;;5035128;28;19921;-56
2021/10/27 17:19:35;;;;;;;;;;;18.40;64.40;;;;;;5043144;28;19920;-58
2021/10/27 17:22:01;;;;;;;;;;;18.30;64.30;;;;;;5036790;28;19919;-60
2021/10/27 17:24:27;;;;;;;;;;;18.30;64.30;;;;;;5026576;28;19914;-59
2021/10/27 17:26:56;;;;;;;;;;;18.40;64.40;;;;;;5023074;28;20516;-59
2021/10/27 17:29:22;;;;;;;;;;;18.40;64.40;;;;;;5024792;28;19928;-58
2021/10/27 17:31:48;;;;;;;;;;;18.40;64.40;;;;;;5025040;28;19913;-60
2021/10/27 17:34:13;;;;;;;;;;;18.40;64.40;;;;;;5022181;28;19924;-57
2021/10/27 17:36:38;;;;;;;;;;;18.40;64.40;;;;;;5025203;28;19967;-58
2021/10/27 17:39:05;;;;;;;;;;;18.40;64.50;;;;;;5025924;28;19913;-59
2021/10/27 17:41:31;;;;;;;;;;;18.40;64.50;;;;;;5021902;28;20007;-60
2021/10/27 17:43:57;;;;;;;;;;;18.40;64.40;;;;;;5039901;28;19913;-60
2021/10/27 17:46:27;;;;;;;;;;;18.40;64.50;;;;;;5042060;28;19932;-58
2021/10/27 17:48:59;;;;;;;;;;;18.40;64.60;;;;;;5045683;28;19963;-59
2021/10/27 17:51:26;;;;;;;;;;;18.40;64.80;;;;;;5044569;28;19921;-59
2021/10/27 17:59:20;;;;;;;;;;;18.40;64.70;;;;;;5044102;28;19920;-58
2021/10/27 18:01:45;;;;;;;;;;;18.40;64.70;;;;;;5020971;28;19913;-57
2021/10/27 18:04:11;;;;;;;;;;;18.40;64.80;;;;;;5037130;28;20592;-61
2021/10/27 18:06:37;;;;;;;;;;;18.40;64.80;;;;;;5031200;28;19913;-59
2021/10/27 18:09:04;;;;;;;;;;;18.40;64.70;;;;;;5022954;28;19928;-59
2021/10/27 18:11:31;;;;;;;;;;;18.40;64.80;;;;;;5029114;28;19917;-59
2021/10/27 18:14:06;;;;;;;;;;;18.40;64.80;;;;;;5045811;28;20103;-56
2021/10/27 18:37:45;;;;;;;;;;;18.50;65.20;;;;;;5020424;28;19981;-60
2021/10/27 18:43:11;;;;;;;;;;;18.60;65.40;;;;;;5022722;28;19924;-60
2021/10/27 18:45:36;;;;;;;;;;;18.60;65.20;;;;;;5037825;28;19996;-59
2021/10/27 18:48:02;;;;;;;;;;;18.60;65.40;;;;;;5029952;28;20000;-58
2021/10/27 18:50:36;;;;;;;;;;;18.60;65.20;;;;;;5024711;28;20332;-60